createdAt,value
2019-02-21T00:01:28.040Z,20.68
2019-02-21T00:03:57.415Z,19.07
2019-02-21T00:06:26.957Z,18.60
2019-02-21T00:08:56.528Z,20.88
2019-02-21T00:11:25.868Z,21.80
2019-02-21T00:13:55.188Z,19.75
2019-02-21T00:16:24.576Z,19.67
2019-02-21T00:19:47.516Z,17.27
2019-02-21T00:22:16.886Z,20.30
2019-02-21T00:24:46.343Z,21.70
2019-02-21T00:27:15.737Z,22.00
2019-02-21T00:29:45.084Z,21.10
2019-02-21T00:32:14.412Z,21.35
2019-02-21T00:34:43.775Z,22.15
2019-02-21T00:37:13.143Z,21.57
2019-02-21T00:39:42.515Z,20.72
2019-02-21T00:42:12.018Z,21.00
2019-02-21T00:44:41.352Z,22.48
2019-02-21T00:47:10.740Z,19.95
2019-02-21T00:49:40.093Z,21.90
2019-02-21T00:52:09.492Z,20.15
2019-02-21T00:54:39.130Z,21.00
2019-02-21T00:57:08.483Z,22.07
2019-02-21T00:59:37.886Z,20.95
2019-02-21T01:02:07.435Z,21.60
2019-02-21T01:04:36.860Z,21.12
2019-02-21T01:07:06.311Z,21.17
2019-02-21T01:09:35.630Z,21.90
2019-02-21T01:12:05.340Z,22.17
2019-02-21T01:14:34.764Z,20.77
2019-02-21T01:17:04.197Z,22.65
2019-02-21T01:19:33.519Z,21.85
2019-02-21T01:22:03.215Z,22.40
2019-02-21T01:24:32.739Z,22.55
2019-02-21T01:27:02.071Z,21.93
2019-02-21T01:29:31.416Z,21.50
2019-02-21T01:32:00.857Z,21.30
2019-02-21T01:34:30.216Z,21.42
2019-02-21T01:36:59.664Z,21.45
2019-02-21T01:39:29.043Z,20.80
2019-02-21T01:41:58.420Z,21.37
2019-02-21T01:44:27.777Z,22.17
2019-02-21T01:46:57.145Z,21.25
2019-02-21T01:49:26.436Z,20.77
2019-02-21T01:51:56.126Z,20.77
2019-02-21T01:54:25.483Z,20.30
2019-02-21T01:56:54.835Z,20.37
2019-02-21T01:59:24.202Z,21.80
2019-02-21T02:01:53.528Z,22.60
2019-02-21T02:04:23.253Z,21.75
2019-02-21T02:06:52.595Z,22.52
2019-02-21T02:09:22.349Z,23.12
2019-02-21T02:11:51.824Z,22.10
2019-02-21T02:14:21.180Z,23.07
2019-02-21T02:16:50.537Z,22.05
2019-02-21T02:19:19.907Z,23.20
2019-02-21T02:21:49.273Z,21.97
2019-02-21T02:24:18.856Z,22.85
2019-02-21T02:27:06.263Z,21.90
2019-02-21T02:29:35.821Z,20.10
2019-02-21T02:32:05.169Z,21.65
2019-02-21T02:34:34.529Z,20.95
2019-02-21T02:37:03.865Z,21.85
2019-02-21T02:39:33.249Z,22.60
2019-02-21T02:42:02.568Z,21.82
2019-02-21T02:44:32.069Z,24.32
2019-02-21T02:47:01.442Z,24.72
2019-02-21T02:49:30.830Z,25.02
2019-02-21T02:52:00.183Z,23.77
2019-02-21T02:54:29.597Z,24.12
2019-02-21T02:56:59.116Z,24.75
2019-02-21T02:59:40.054Z,23.50
2019-02-21T03:01:59.653Z,24.20
2019-02-21T03:04:29.089Z,24.32
2019-02-21T03:06:58.572Z,23.80
2019-02-21T03:09:28.038Z,22.70
2019-02-21T03:11:57.447Z,23.65
2019-02-21T03:14:26.755Z,24.77
2019-02-21T03:16:56.145Z,23.30
2019-02-21T03:19:25.467Z,24.52
2019-02-21T03:21:54.852Z,23.92
2019-02-21T03:24:24.208Z,23.80
2019-02-21T03:26:53.779Z,23.45
2019-02-21T03:29:23.139Z,23.02
2019-02-21T03:31:55.119Z,23.52
2019-02-21T03:34:23.659Z,22.30
2019-02-21T03:36:53.048Z,22.42
2019-02-21T03:39:22.466Z,24.15
2019-02-21T03:41:52.233Z,22.58
2019-02-21T03:44:21.577Z,24.98
2019-02-21T03:46:53.302Z,22.17
2019-02-21T03:49:22.667Z,25.08
2019-02-21T03:51:52.033Z,22.60
2019-02-21T03:54:21.400Z,23.32
2019-02-21T03:56:50.860Z,22.02
2019-02-21T03:59:20.593Z,23.50
2019-02-21T04:01:49.990Z,24.15
2019-02-21T04:04:19.336Z,24.98
2019-02-21T04:06:48.980Z,25.55
2019-02-21T04:09:18.350Z,25.75
2019-02-21T04:11:47.718Z,25.72
2019-02-21T04:14:17.342Z,25.35
2019-02-21T04:16:46.853Z,25.75
2019-02-21T04:19:16.259Z,24.65
2019-02-21T04:21:45.646Z,25.10
2019-02-21T04:24:15.013Z,26.20
2019-02-21T04:26:44.371Z,25.50
2019-02-21T04:29:13.937Z,27.35
2019-02-21T04:31:43.307Z,26.40
2019-02-21T04:34:12.722Z,28.67
2019-02-21T04:36:42.153Z,29.18
2019-02-21T04:39:11.491Z,31.87
2019-02-21T04:41:41.067Z,29.35
2019-02-21T04:44:10.458Z,27.10
2019-02-21T04:46:39.803Z,27.77
2019-02-21T04:49:09.216Z,27.40
2019-02-21T04:51:38.635Z,26.00
2019-02-21T04:54:08.302Z,26.05
2019-02-21T04:56:38.553Z,26.80
2019-02-21T04:59:07.909Z,25.65
2019-02-21T05:01:37.267Z,30.12
2019-02-21T05:04:06.643Z,29.70
2019-02-21T05:06:36.304Z,30.57
2019-02-21T05:09:07.529Z,28.45
2019-02-21T05:11:37.033Z,27.55
2019-02-21T05:14:06.427Z,27.65
2019-02-21T05:16:35.942Z,28.35
2019-02-21T05:19:05.368Z,28.25
2019-02-21T05:21:34.754Z,31.73
2019-02-21T05:24:04.154Z,30.80
2019-02-21T05:26:41.087Z,29.75
2019-02-21T05:29:12.002Z,32.17
2019-02-21T05:31:57.765Z,29.25
2019-02-21T05:34:55.158Z,31.07
2019-02-21T05:37:49.233Z,30.00
2019-02-21T05:40:50.153Z,32.65
2019-02-21T05:43:31.182Z,31.48
2019-02-21T05:46:21.192Z,30.43
2019-02-21T05:49:11.471Z,29.23
2019-02-21T05:52:02.380Z,29.35
2019-02-21T05:54:39.528Z,29.82
2019-02-21T05:57:36.752Z,30.95
2019-02-21T06:00:25.344Z,32.10
2019-02-21T06:03:11.241Z,33.80
2019-02-21T06:05:59.552Z,36.25
2019-02-21T06:08:46.388Z,34.60
2019-02-21T06:11:29.730Z,33.73
2019-02-21T06:14:16.626Z,34.08
2019-02-21T06:17:04.934Z,34.60
2019-02-21T06:19:41.237Z,33.63
2019-02-21T06:22:28.144Z,34.75
2019-02-21T06:25:10.861Z,32.65
2019-02-21T06:27:45.192Z,33.63
2019-02-21T06:30:33.497Z,32.50
2019-02-21T06:33:05.346Z,33.30
2019-02-21T06:35:34.056Z,30.62
2019-02-21T06:38:03.400Z,31.45
2019-02-21T06:40:32.740Z,31.30
2019-02-21T06:43:02.132Z,32.23
2019-02-21T06:45:31.477Z,29.98
2019-02-21T06:48:00.856Z,30.60
2019-02-21T06:50:30.304Z,30.62
2019-02-21T06:52:59.636Z,28.90
2019-02-21T06:55:28.994Z,29.87
2019-02-21T06:57:58.328Z,28.67
2019-02-21T07:00:27.686Z,28.60
2019-02-21T07:02:56.984Z,28.27
2019-02-21T07:05:26.470Z,26.95
2019-02-21T07:07:55.864Z,26.85
2019-02-21T07:10:25.268Z,25.20
2019-02-21T07:12:54.615Z,25.65
2019-02-21T07:15:24.007Z,24.82
2019-02-21T07:17:53.332Z,24.85
2019-02-21T07:20:22.712Z,25.25
2019-02-21T07:22:52.239Z,24.32
2019-02-21T07:25:35.258Z,26.60
2019-02-21T07:28:11.784Z,26.60
2019-02-21T07:30:35.689Z,27.60
2019-02-21T07:33:05.056Z,26.02
2019-02-21T07:35:34.401Z,25.17
2019-02-21T07:38:03.702Z,24.85
2019-02-21T07:40:33.199Z,24.10
2019-02-21T07:43:03.005Z,22.77
2019-02-21T07:45:32.349Z,23.20
2019-02-21T07:48:02.064Z,23.75
2019-02-21T07:50:32.080Z,24.23
2019-02-21T07:53:02.661Z,22.73
2019-02-21T07:55:32.568Z,23.07
2019-02-21T07:58:03.970Z,21.95
2019-02-21T08:00:32.966Z,20.00
2019-02-21T08:03:02.316Z,20.88
2019-02-21T08:05:31.865Z,19.92
2019-02-21T08:08:01.215Z,19.48
2019-02-21T08:10:33.837Z,18.77
2019-02-21T08:13:02.005Z,19.25
2019-02-21T08:15:31.369Z,18.73
2019-02-21T08:18:00.734Z,19.20
2019-02-21T08:20:34.200Z,20.15
2019-02-21T08:23:03.069Z,18.90
2019-02-21T08:25:32.314Z,19.30
2019-02-21T08:28:01.630Z,18.35
2019-02-21T08:30:32.951Z,17.10
2019-02-21T08:33:14.643Z,18.00
2019-02-21T08:35:44.058Z,18.90
2019-02-21T08:38:13.601Z,18.50
2019-02-21T08:40:42.953Z,18.40
2019-02-21T08:43:12.329Z,17.97
2019-02-21T08:45:41.687Z,17.53
2019-02-21T08:48:13.400Z,18.33
2019-02-21T08:50:45.187Z,18.70
2019-02-21T08:53:14.896Z,19.10
2019-02-21T08:55:44.225Z,19.30
2019-02-21T08:58:13.645Z,18.83
2019-02-21T09:00:43.001Z,19.77
2019-02-21T09:03:12.554Z,18.40
2019-02-21T09:05:41.940Z,19.17
2019-02-21T09:08:11.322Z,18.73
2019-02-21T09:10:40.724Z,18.97
2019-02-21T09:13:10.167Z,20.50
2019-02-21T09:15:39.685Z,19.50
2019-02-21T09:18:09.062Z,19.63
2019-02-21T09:20:38.452Z,18.80
2019-02-21T09:23:07.860Z,17.90
2019-02-21T09:25:37.219Z,18.60
2019-02-21T09:28:06.679Z,18.30
2019-02-21T09:30:36.138Z,19.30
2019-02-21T09:33:14.777Z,19.20
2019-02-21T09:35:36.618Z,18.50
2019-02-21T09:38:06.017Z,18.77
2019-02-21T09:40:35.382Z,18.60
2019-02-21T09:43:04.780Z,18.87
2019-02-21T09:45:34.451Z,18.73
2019-02-21T09:48:03.799Z,18.43
2019-02-21T09:50:33.353Z,18.00
2019-02-21T09:53:03.100Z,19.07
2019-02-21T09:55:32.493Z,17.97
2019-02-21T09:58:01.820Z,18.27
2019-02-21T10:00:31.159Z,19.10
2019-02-21T10:03:00.512Z,18.73
2019-02-21T10:05:30.249Z,18.90
2019-02-21T10:07:59.618Z,18.20
2019-02-21T10:10:28.985Z,16.97
2019-02-21T10:12:58.362Z,17.20
2019-02-21T10:15:28.012Z,17.23
2019-02-21T10:17:57.341Z,18.17
2019-02-21T10:20:26.800Z,17.80
2019-02-21T10:22:56.209Z,17.40
2019-02-21T10:25:26.451Z,18.10
2019-02-21T10:27:58.706Z,16.33
2019-02-21T10:30:27.201Z,17.13
2019-02-21T10:32:56.516Z,16.00
2019-02-21T10:35:25.859Z,16.00
2019-02-21T10:37:55.209Z,16.17
2019-02-21T10:40:24.756Z,16.53
2019-02-21T10:42:54.254Z,19.00
2019-02-21T10:45:23.614Z,18.90
2019-02-21T10:47:52.998Z,14.00
2019-02-21T10:50:22.356Z,14.87
2019-02-21T10:52:51.726Z,15.90
2019-02-21T10:55:21.791Z,14.30
2019-02-21T10:57:51.161Z,14.60
2019-02-21T11:00:22.942Z,13.10
2019-02-21T11:02:52.313Z,12.67
2019-02-21T11:05:21.654Z,12.10
2019-02-21T11:07:51.043Z,12.47
2019-02-21T11:10:23.288Z,11.60
2019-02-21T11:12:52.783Z,11.83
2019-02-21T11:15:23.200Z,11.80
2019-02-21T11:17:52.619Z,12.60
2019-02-21T11:20:21.956Z,11.03
2019-02-21T11:22:52.524Z,12.67
2019-02-21T11:25:21.961Z,13.00
2019-02-21T11:27:51.444Z,12.50
2019-02-21T11:30:21.222Z,13.63
2019-02-21T11:32:50.595Z,13.63
2019-02-21T11:35:19.956Z,14.17
2019-02-21T11:37:49.405Z,13.57
2019-02-21T11:40:19.117Z,14.80
2019-02-21T11:42:48.606Z,15.63
2019-02-21T11:45:18.394Z,14.90
2019-02-21T11:47:47.753Z,14.83
2019-02-21T11:50:17.549Z,15.90
2019-02-21T11:52:47.217Z,14.40
2019-02-21T11:55:18.514Z,14.37
2019-02-21T11:57:47.912Z,13.90
2019-02-21T12:00:20.043Z,13.53
2019-02-21T12:02:49.377Z,13.17
2019-02-21T12:05:30.154Z,11.07
2019-02-21T12:07:50.487Z,11.93
2019-02-21T12:10:19.876Z,11.70
2019-02-21T12:12:49.266Z,12.63
2019-02-21T12:15:18.898Z,11.37
2019-02-21T12:17:48.235Z,12.53
2019-02-21T12:20:17.589Z,12.30
2019-02-21T12:22:46.940Z,11.50
2019-02-21T12:25:16.773Z,12.20
2019-02-21T12:27:46.192Z,12.23
2019-02-21T12:30:17.160Z,11.83
2019-02-21T12:32:46.762Z,12.63
2019-02-21T12:35:16.733Z,12.63
2019-02-21T12:37:46.055Z,12.10
2019-02-21T12:40:17.712Z,12.73
2019-02-21T12:42:47.269Z,11.80
2019-02-21T12:45:18.983Z,11.83
2019-02-21T12:47:52.758Z,12.07
2019-02-21T12:50:19.723Z,11.03
2019-02-21T12:52:49.141Z,10.90
2019-02-21T12:55:27.313Z,10.40
2019-02-21T12:57:49.557Z,10.70
2019-02-21T13:00:19.443Z,10.50
2019-02-21T13:02:48.789Z,9.90
2019-02-21T13:05:18.170Z,9.83
2019-02-21T13:07:47.591Z,8.80
2019-02-21T13:10:18.058Z,10.10
2019-02-21T13:12:47.585Z,9.00
2019-02-21T13:15:17.002Z,7.87
2019-02-21T13:17:46.389Z,8.23
2019-02-21T13:20:16.123Z,9.00
2019-02-21T13:22:45.527Z,10.03
2019-02-21T13:25:14.921Z,9.70
2019-02-21T13:27:44.289Z,9.43
2019-02-21T13:30:15.014Z,9.93
2019-02-21T13:32:44.411Z,10.13
2019-02-21T13:35:13.887Z,9.83
2019-02-21T13:37:43.487Z,9.80
2019-02-21T13:40:13.960Z,9.27
2019-02-21T13:42:43.331Z,9.30
2019-02-21T13:45:17.214Z,9.20
2019-02-21T13:47:45.609Z,9.80
2019-02-21T13:50:15.978Z,9.40
2019-02-21T13:52:45.373Z,9.00
2019-02-21T13:55:14.998Z,9.13
2019-02-21T13:57:44.393Z,9.03
2019-02-21T14:00:15.950Z,8.40
2019-02-21T14:02:45.293Z,7.90
2019-02-21T14:05:14.872Z,8.30
2019-02-21T14:07:44.282Z,8.87
2019-02-21T14:10:13.724Z,9.27
2019-02-21T14:12:43.069Z,6.97
2019-02-21T14:15:15.855Z,6.07
2019-02-21T14:17:46.644Z,5.90
2019-02-21T14:20:16.408Z,6.33
2019-02-21T14:22:45.808Z,5.30
2019-02-21T14:25:15.394Z,5.13
2019-02-21T14:27:44.733Z,5.60
2019-02-21T14:30:16.064Z,5.43
2019-02-21T14:32:45.422Z,5.90
2019-02-21T14:35:15.135Z,5.90
2019-02-21T14:37:44.546Z,6.53
2019-02-21T14:40:14.164Z,6.30
2019-02-21T14:42:43.569Z,6.53
2019-02-21T14:45:15.054Z,5.57
2019-02-21T14:47:44.420Z,4.90
2019-02-21T14:50:13.969Z,5.47
2019-02-21T14:52:43.333Z,4.90
2019-02-21T14:55:13.666Z,4.83
2019-02-21T14:57:43.192Z,4.73
2019-02-21T15:00:18.238Z,5.10
2019-02-21T15:02:47.643Z,5.80
2019-02-21T15:05:54.286Z,5.33
2019-02-21T15:08:24.021Z,4.57
2019-02-21T15:10:53.584Z,5.00
2019-02-21T15:13:25.507Z,4.63
2019-02-21T15:15:56.575Z,5.03
2019-02-21T15:18:26.101Z,4.97
2019-02-21T15:20:55.586Z,4.93
2019-02-21T15:23:43.048Z,4.77
2019-02-21T15:26:12.605Z,5.23
2019-02-21T15:28:42.128Z,5.20
2019-02-21T15:31:11.730Z,5.70
2019-02-21T15:33:41.449Z,6.23
2019-02-21T15:36:11.006Z,6.20
2019-02-21T15:38:40.506Z,5.70
2019-02-21T15:41:10.201Z,5.57
2019-02-21T15:43:39.802Z,5.63
2019-02-21T15:46:09.977Z,4.90
2019-02-21T15:48:39.918Z,6.77
2019-02-21T15:51:09.508Z,16.17
2019-02-21T15:53:39.137Z,18.80
2019-02-21T15:56:08.648Z,21.70
2019-02-21T15:58:38.711Z,23.37
2019-02-21T16:01:08.311Z,26.00
2019-02-21T16:03:38.037Z,25.77
2019-02-21T16:06:07.653Z,23.83
2019-02-21T16:08:37.283Z,22.50
2019-02-21T16:11:06.924Z,22.77
2019-02-21T16:13:37.161Z,23.80
2019-02-21T16:16:24.946Z,24.10
2019-02-21T16:18:54.957Z,23.60
2019-02-21T16:21:24.489Z,23.37
2019-02-21T16:23:57.171Z,23.13
2019-02-21T16:26:45.078Z,22.80
2019-02-21T16:29:14.625Z,22.83
2019-02-21T16:31:44.392Z,21.87
2019-02-21T16:34:13.993Z,23.63
2019-02-21T16:36:43.564Z,22.17
2019-02-21T16:39:13.170Z,22.40
2019-02-21T16:41:44.373Z,23.07
2019-02-21T16:44:14.406Z,22.70
2019-02-21T16:46:44.016Z,22.93
2019-02-21T16:49:13.711Z,22.27
2019-02-21T16:51:43.418Z,23.17
2019-02-21T16:54:13.643Z,23.60
2019-02-21T16:56:43.677Z,22.27
2019-02-21T16:59:16.111Z,30.10
2019-02-21T17:01:45.751Z,22.20
2019-02-21T17:04:15.376Z,24.97
2019-02-21T17:07:20.865Z,20.50
2019-02-21T17:09:50.499Z,21.53
2019-02-21T17:12:31.453Z,21.73
2019-02-21T17:15:05.318Z,21.70
2019-02-21T17:17:34.902Z,22.20
2019-02-21T17:20:05.091Z,21.73
2019-02-21T17:22:34.868Z,22.23
2019-02-21T17:25:04.577Z,22.13
2019-02-21T17:27:52.214Z,23.10
2019-02-21T17:30:22.074Z,22.60
2019-02-21T17:32:51.743Z,25.37
2019-02-21T17:35:21.735Z,30.57
2019-02-21T17:37:51.360Z,28.00
2019-02-21T17:40:21.213Z,26.00
2019-02-21T17:42:50.841Z,27.80
2019-02-21T17:45:20.472Z,30.03
2019-02-21T17:47:50.080Z,29.80
2019-02-21T17:50:20.108Z,28.20
2019-02-21T17:52:50.134Z,29.50
2019-02-21T17:55:19.721Z,31.50
2019-02-21T17:58:07.089Z,28.67
2019-02-21T18:00:38.112Z,25.20
2019-02-21T18:03:08.749Z,23.40
2019-02-21T18:05:56.312Z,25.20
2019-02-21T18:08:25.894Z,26.83
2019-02-21T18:10:56.596Z,25.77
2019-02-21T18:13:26.191Z,25.50
2019-02-21T18:15:56.199Z,27.10
2019-02-21T18:18:25.799Z,25.27
2019-02-21T18:20:55.551Z,34.78
2019-02-21T18:23:25.140Z,34.88
2019-02-21T18:26:17.145Z,53.67
2019-02-21T18:28:47.362Z,30.07
2019-02-21T18:31:18.009Z,41.37
2019-02-21T18:33:47.691Z,64.60
2019-02-21T18:36:17.205Z,103.67
2019-02-21T18:38:47.013Z,56.70
2019-02-21T18:41:16.675Z,88.57
2019-02-21T18:43:46.336Z,44.97
2019-02-21T18:46:16.007Z,68.53
2019-02-21T18:48:45.638Z,54.20
2019-02-21T18:51:15.607Z,47.90
2019-02-21T18:53:45.402Z,43.57
2019-02-21T18:56:15.003Z,92.07
2019-02-21T18:58:45.569Z,120.67
2019-02-21T19:01:15.253Z,41.47
2019-02-21T19:03:44.786Z,26.83
2019-02-21T19:06:32.243Z,26.50
2019-02-21T19:09:02.163Z,22.57
2019-02-21T19:11:31.803Z,19.17
2019-02-21T19:14:01.746Z,19.50
2019-02-21T19:16:31.438Z,21.10
2019-02-21T19:19:01.081Z,19.13
2019-02-21T19:21:30.727Z,18.20
2019-02-21T19:24:00.246Z,16.60
2019-02-21T19:26:29.805Z,15.23
2019-02-21T19:28:59.415Z,13.90
2019-02-21T19:31:29.187Z,13.60
2019-02-21T19:33:58.719Z,14.10
2019-02-21T19:36:28.425Z,15.23
2019-02-21T19:38:58.030Z,13.33
2019-02-21T19:41:27.734Z,15.07
2019-02-21T19:44:08.148Z,14.37
2019-02-21T19:46:28.598Z,14.33
2019-02-21T19:48:58.142Z,38.07
2019-02-21T19:51:27.909Z,22.87
2019-02-21T19:53:57.412Z,15.20
2019-02-21T19:56:27.057Z,14.40
2019-02-21T19:58:56.665Z,14.73
2019-02-21T20:01:26.309Z,12.37
2019-02-21T20:03:55.946Z,13.23
2019-02-21T20:06:25.549Z,13.43
2019-02-21T20:08:55.427Z,13.20
2019-02-21T20:11:25.312Z,12.30
2019-02-21T20:13:54.899Z,11.70
2019-02-21T20:16:24.503Z,13.10
2019-02-21T20:18:54.174Z,11.60
2019-02-21T20:21:23.891Z,11.00
2019-02-21T20:23:53.801Z,11.17
2019-02-21T20:26:23.391Z,11.37
2019-02-21T20:28:55.036Z,11.27
2019-02-21T20:31:24.415Z,10.40
2019-02-21T20:33:54.052Z,11.50
2019-02-21T20:36:23.627Z,11.30
2019-02-21T20:38:53.245Z,12.37
2019-02-21T20:41:22.945Z,10.43
2019-02-21T20:43:52.571Z,9.87
2019-02-21T20:46:22.272Z,10.50
2019-02-21T20:48:51.951Z,11.03
2019-02-21T20:51:21.601Z,10.03
2019-02-21T20:53:51.184Z,10.50
2019-02-21T20:56:20.768Z,10.27
2019-02-21T20:58:50.485Z,10.57
2019-02-21T21:01:20.696Z,11.00
2019-02-21T21:03:50.281Z,10.60
2019-02-21T21:06:19.885Z,10.03
2019-02-21T21:08:49.422Z,9.90
2019-02-21T21:11:18.972Z,11.10
2019-02-21T21:13:48.747Z,10.77
2019-02-21T21:16:18.423Z,12.00
2019-02-21T21:18:48.071Z,10.93
2019-02-21T21:21:17.785Z,11.17
2019-02-21T21:23:47.506Z,10.67
2019-02-21T21:26:17.225Z,12.07
2019-02-21T21:28:47.077Z,12.60
2019-02-21T21:31:16.727Z,16.20
2019-02-21T21:33:46.590Z,16.27
2019-02-21T21:36:16.366Z,17.27
2019-02-21T21:38:53.770Z,16.10
2019-02-21T21:41:17.392Z,16.23
2019-02-21T21:43:47.014Z,16.57
2019-02-21T21:46:16.575Z,16.70
2019-02-21T21:48:46.147Z,15.93
2019-02-21T21:51:15.888Z,16.60
2019-02-21T21:53:45.464Z,15.77
2019-02-21T21:56:14.987Z,15.37
2019-02-21T21:58:44.468Z,15.23
2019-02-21T22:01:14.084Z,16.33
2019-02-21T22:03:43.777Z,15.03
2019-02-21T22:06:13.432Z,16.10
2019-02-21T22:08:43.050Z,15.53
2019-02-21T22:11:12.646Z,15.03
2019-02-21T22:13:42.170Z,15.60
2019-02-21T22:16:11.758Z,14.97
2019-02-21T22:18:41.364Z,14.07
2019-02-21T22:21:10.822Z,14.97
2019-02-21T22:23:40.433Z,14.73
2019-02-21T22:26:09.975Z,13.33
2019-02-21T22:28:39.495Z,14.20
2019-02-21T22:31:09.357Z,14.23
2019-02-21T22:33:38.962Z,12.57
2019-02-21T22:36:08.628Z,14.60
2019-02-21T22:38:38.167Z,13.67
2019-02-21T22:41:07.661Z,12.83
2019-02-21T22:43:37.271Z,13.50
2019-02-21T22:46:06.776Z,13.00
2019-02-21T22:48:46.665Z,14.00
2019-02-21T22:51:07.764Z,14.57
2019-02-21T22:53:37.301Z,14.20
2019-02-21T22:56:06.827Z,14.70
2019-02-21T22:58:44.832Z,13.60
2019-02-21T23:01:23.323Z,13.87
2019-02-21T23:04:15.069Z,13.70
2019-02-21T23:07:15.024Z,14.63
2019-02-21T23:09:44.639Z,14.10
2019-02-21T23:12:14.144Z,13.83
2019-02-21T23:14:43.620Z,15.00
2019-02-21T23:17:13.291Z,14.40
2019-02-21T23:19:43.442Z,13.43
2019-02-21T23:22:12.969Z,14.17
2019-02-21T23:24:42.598Z,13.73
2019-02-21T23:27:12.142Z,14.40
2019-02-21T23:29:59.778Z,14.37
2019-02-21T23:32:29.262Z,14.13
2019-02-21T23:34:59.895Z,14.70
2019-02-21T23:37:29.399Z,15.00
2019-02-21T23:39:58.916Z,15.10
2019-02-21T23:42:28.704Z,14.90
2019-02-21T23:44:58.191Z,14.07
2019-02-21T23:47:27.699Z,14.50
2019-02-21T23:49:57.229Z,14.60
2019-02-21T23:52:26.731Z,14.47
2019-02-21T23:54:57.887Z,15.00
2019-02-21T23:57:27.428Z,14.30
2019-02-21T23:59:56.993Z,14.60
